createdAt,value
2018-06-27T00:00:47.972Z,16.00
2018-06-27T00:03:17.044Z,15.90
2018-06-27T00:05:46.132Z,15.80
2018-06-27T00:08:15.456Z,15.80
2018-06-27T00:10:44.529Z,15.70
2018-06-27T00:13:13.748Z,15.70
2018-06-27T00:15:42.808Z,15.60
2018-06-27T00:20:40.584Z,15.50
2018-06-27T00:23:09.628Z,15.40
2018-06-27T00:25:38.687Z,15.30
2018-06-27T00:30:36.470Z,15.10
2018-06-27T00:35:34.208Z,14.90
2018-06-27T00:38:03.264Z,14.90
2018-06-27T00:40:32.328Z,14.80
2018-06-27T00:43:01.376Z,14.70
2018-06-27T00:45:30.440Z,14.60
2018-06-27T00:50:29.092Z,14.30
2018-06-27T00:52:58.137Z,14.20
2018-06-27T00:57:56.156Z,13.90
2018-06-27T01:00:25.218Z,13.80
2018-06-27T01:05:22.951Z,13.60
2018-06-27T01:07:52.001Z,13.40
2018-06-27T01:12:49.772Z,13.20
2018-06-27T01:15:18.837Z,13.10
2018-06-27T01:17:52.923Z,13.00
2018-06-27T01:20:21.989Z,13.00
2018-06-27T01:25:20.538Z,12.90
2018-06-27T01:27:49.716Z,13.00
2018-06-27T01:30:18.782Z,13.10
2018-06-27T01:32:47.825Z,13.10
2018-06-27T01:35:16.892Z,13.10
2018-06-27T01:37:45.940Z,13.00
2018-06-27T01:40:15.021Z,13.00
2018-06-27T01:42:44.072Z,12.90
2018-06-27T01:45:13.111Z,12.80
2018-06-27T01:47:42.175Z,12.70
2018-06-27T01:50:11.216Z,12.60
2018-06-27T01:52:40.284Z,12.40
2018-06-27T01:55:09.323Z,12.30
2018-06-27T01:57:38.404Z,12.20
2018-06-27T02:00:08.075Z,12.10
2018-06-27T02:02:37.136Z,12.10
2018-06-27T02:05:06.187Z,12.10
2018-06-27T02:07:35.248Z,12.30
2018-06-27T02:10:04.440Z,12.30
2018-06-27T02:15:02.192Z,12.10
2018-06-27T02:17:31.255Z,11.90
2018-06-27T02:20:00.552Z,11.80
2018-06-27T02:22:29.616Z,11.70
2018-06-27T02:29:56.032Z,11.70
2018-06-27T02:32:25.100Z,11.70
2018-06-27T02:34:54.152Z,11.80
2018-06-27T02:37:23.261Z,11.90
2018-06-27T02:42:21.044Z,12.00
2018-06-27T02:44:50.088Z,11.90
2018-06-27T02:47:19.153Z,11.80
2018-06-27T02:49:48.246Z,11.70
2018-06-27T02:52:17.299Z,11.60
2018-06-27T02:54:46.376Z,11.50
2018-06-27T02:57:15.551Z,11.30
2018-06-27T02:59:44.604Z,11.30
2018-06-27T03:02:13.668Z,11.40
2018-06-27T03:04:42.720Z,11.40
2018-06-27T03:09:40.475Z,11.50
2018-06-27T03:14:38.241Z,11.60
2018-06-27T03:17:07.304Z,11.60
2018-06-27T03:19:36.358Z,11.60
2018-06-27T03:22:05.451Z,11.60
2018-06-27T03:24:34.499Z,11.50
2018-06-27T03:27:03.649Z,11.50
2018-06-27T03:29:32.692Z,11.50
2018-06-27T03:32:01.756Z,11.40
2018-06-27T03:36:59.484Z,11.50
2018-06-27T03:39:28.532Z,11.50
2018-06-27T03:44:26.263Z,11.40
2018-06-27T03:46:55.320Z,11.50
2018-06-27T03:49:24.364Z,11.50
2018-06-27T03:51:53.544Z,11.40
2018-06-27T03:54:22.583Z,11.40
2018-06-27T03:56:51.656Z,11.30
2018-06-27T03:59:20.713Z,11.30
2018-06-27T04:01:49.960Z,11.30
2018-06-27T04:04:19.155Z,11.30
2018-06-27T04:06:48.220Z,11.30
2018-06-27T04:09:17.283Z,11.40
2018-06-27T04:11:46.347Z,11.50
2018-06-27T04:14:15.416Z,11.60
2018-06-27T04:16:44.484Z,11.60
2018-06-27T04:19:13.521Z,11.70
2018-06-27T04:21:42.584Z,11.70
2018-06-27T04:24:11.627Z,11.80
2018-06-27T04:26:40.688Z,11.90
2018-06-27T04:29:09.757Z,11.90
2018-06-27T04:31:38.820Z,12.00
2018-06-27T04:34:07.855Z,12.10
2018-06-27T04:36:36.903Z,12.20
2018-06-27T04:39:08.295Z,12.30
2018-06-27T04:41:37.491Z,12.40
2018-06-27T04:44:06.559Z,12.50
2018-06-27T04:49:04.704Z,12.60
2018-06-27T04:51:34.288Z,12.70
2018-06-27T04:54:03.361Z,12.80
2018-06-27T04:59:01.096Z,13.00
2018-06-27T05:01:30.140Z,13.10
2018-06-27T05:08:56.555Z,13.50
2018-06-27T05:11:25.675Z,13.60
2018-06-27T05:13:54.760Z,13.70
2018-06-27T05:16:23.820Z,13.90
2018-06-27T05:18:52.880Z,14.00
2018-06-27T05:21:21.929Z,14.10
2018-06-27T05:23:50.991Z,14.30
2018-06-27T05:26:20.040Z,14.50
2018-06-27T05:28:49.120Z,14.70
2018-06-27T05:31:18.193Z,14.80
2018-06-27T05:33:47.261Z,14.90
2018-06-27T05:38:45.032Z,15.00
2018-06-27T05:41:14.076Z,15.00
2018-06-27T05:43:43.131Z,15.00
2018-06-27T05:48:41.023Z,15.20
2018-06-27T05:53:38.755Z,15.30
2018-06-27T05:56:07.812Z,15.40
2018-06-27T05:58:36.867Z,15.50
2018-06-27T06:01:05.949Z,15.70
2018-06-27T06:03:35.025Z,15.70
2018-06-27T06:06:04.075Z,15.70
2018-06-27T06:13:30.570Z,15.80
2018-06-27T06:15:59.619Z,15.80
2018-06-27T06:18:28.687Z,15.80
2018-06-27T06:20:57.738Z,16.00
2018-06-27T06:23:26.812Z,16.10
2018-06-27T06:25:55.857Z,16.30
2018-06-27T06:28:24.972Z,16.40
2018-06-27T06:30:54.024Z,16.60
2018-06-27T06:48:16.719Z,17.30
2018-06-27T06:50:45.768Z,17.40
2018-06-27T06:53:14.824Z,17.40
2018-06-27T06:55:43.884Z,17.30
2018-06-27T06:58:12.948Z,17.20
2018-06-27T07:03:10.744Z,17.60
2018-06-27T07:08:08.484Z,17.70
2018-06-27T07:10:37.528Z,17.80
2018-06-27T07:13:06.760Z,18.20
2018-06-27T07:15:36.148Z,18.70
2018-06-27T07:18:05.523Z,19.10
2018-06-27T07:23:03.297Z,19.60
2018-06-27T07:28:01.052Z,19.90
2018-06-27T07:30:30.188Z,19.90
2018-06-27T07:35:27.947Z,20.10
2018-06-27T07:37:57.092Z,19.80
2018-06-27T07:40:26.156Z,19.50
2018-06-27T07:42:55.199Z,19.60
2018-06-27T07:45:24.264Z,20.00
2018-06-27T07:47:53.308Z,20.20
2018-06-27T07:50:22.372Z,20.70
2018-06-27T07:52:51.750Z,21.00
2018-06-27T07:55:20.832Z,21.40
2018-06-27T08:00:18.976Z,22.30
2018-06-27T08:02:48.019Z,22.50
2018-06-27T08:05:17.086Z,22.60
2018-06-27T08:07:46.124Z,22.50
2018-06-27T08:10:15.420Z,22.80
2018-06-27T08:17:42.730Z,23.00
2018-06-27T08:20:11.749Z,23.10
2018-06-27T08:22:40.805Z,22.90
2018-06-27T08:27:38.579Z,22.50
2018-06-27T08:32:36.400Z,22.70
2018-06-27T08:35:05.465Z,22.70
2018-06-27T08:40:03.200Z,23.80
2018-06-27T08:42:32.248Z,24.10
2018-06-27T08:45:01.310Z,23.70
2018-06-27T08:47:30.357Z,23.50
2018-06-27T08:49:59.436Z,23.40
2018-06-27T08:52:28.488Z,23.40
2018-06-27T08:54:57.552Z,23.40
2018-06-27T08:57:26.601Z,23.60
2018-06-27T08:59:55.660Z,23.80
2018-06-27T09:02:24.703Z,24.00
2018-06-27T09:07:22.457Z,23.80
2018-06-27T09:09:51.536Z,24.10
2018-06-27T09:12:20.604Z,24.20
2018-06-27T09:14:49.678Z,24.40
2018-06-27T09:19:47.453Z,25.00
2018-06-27T09:22:16.505Z,25.60
2018-06-27T09:24:45.644Z,25.20
2018-06-27T09:27:14.697Z,25.10
2018-06-27T09:29:44.020Z,24.90
2018-06-27T09:32:13.064Z,25.00
2018-06-27T09:34:42.128Z,25.00
2018-06-27T09:37:11.184Z,25.10
2018-06-27T09:39:40.259Z,24.90
2018-06-27T09:42:09.304Z,24.90
2018-06-27T09:44:38.413Z,25.00
2018-06-27T09:47:07.460Z,25.10
2018-06-27T09:49:36.535Z,25.10
2018-06-27T09:52:05.616Z,24.80
2018-06-27T09:54:38.913Z,24.50
2018-06-27T09:59:37.228Z,24.50
2018-06-27T10:02:06.352Z,24.50
2018-06-27T10:07:04.037Z,24.50
2018-06-27T10:09:33.109Z,24.90
2018-06-27T10:12:02.164Z,25.40
2018-06-27T10:19:28.936Z,25.10
2018-06-27T10:21:57.984Z,24.80
2018-06-27T10:24:27.312Z,24.90
2018-06-27T10:26:56.360Z,25.20
2018-06-27T10:29:25.444Z,25.70
2018-06-27T10:31:54.522Z,26.30
2018-06-27T10:36:52.374Z,25.80
2018-06-27T10:39:21.518Z,26.20
2018-06-27T10:44:19.271Z,27.40
2018-06-27T10:46:48.335Z,27.60
2018-06-27T10:49:17.384Z,27.20
2018-06-27T10:54:15.149Z,27.80
2018-06-27T10:56:44.216Z,27.60
2018-06-27T10:59:13.260Z,27.10
2018-06-27T11:04:11.025Z,25.70
2018-06-27T11:06:40.090Z,25.10
2018-06-27T11:09:09.675Z,25.20
2018-06-27T11:11:38.745Z,25.50
2018-06-27T11:16:36.888Z,25.50
2018-06-27T11:19:05.928Z,25.60
2018-06-27T11:24:03.652Z,25.70
2018-06-27T11:26:32.707Z,25.80
2018-06-27T11:29:02.596Z,26.10
2018-06-27T11:31:31.660Z,26.50
2018-06-27T11:34:00.713Z,26.60
2018-06-27T11:41:27.200Z,26.60
2018-06-27T11:43:56.248Z,26.50
2018-06-27T11:46:25.340Z,26.50
2018-06-27T11:48:54.397Z,26.60
2018-06-27T11:51:23.465Z,26.60
2018-06-27T11:53:52.505Z,27.30
2018-06-27T11:56:21.764Z,27.40
2018-06-27T11:58:50.812Z,27.30
2018-06-27T12:01:19.879Z,27.50
2018-06-27T12:03:48.939Z,27.60
2018-06-27T12:06:18.016Z,27.50
2018-06-27T12:08:47.383Z,27.40
2018-06-27T12:11:16.600Z,27.40
2018-06-27T12:13:45.677Z,27.50
2018-06-27T12:16:14.736Z,27.80
2018-06-27T12:18:43.780Z,28.00
2018-06-27T12:21:12.849Z,27.90
2018-06-27T12:23:41.888Z,27.40
2018-06-27T12:26:11.180Z,26.90
2018-06-27T12:28:40.219Z,27.10
2018-06-27T12:36:06.840Z,27.20
2018-06-27T12:38:36.070Z,27.40
2018-06-27T12:41:05.096Z,27.60
2018-06-27T12:43:34.147Z,27.70
2018-06-27T12:46:03.207Z,27.60
2018-06-27T12:48:32.285Z,28.10
2018-06-27T12:53:30.201Z,28.40
2018-06-27T12:55:59.264Z,27.70
2018-06-27T13:00:57.068Z,27.00
2018-06-27T13:03:26.135Z,27.00
2018-06-27T13:05:55.207Z,27.20
2018-06-27T13:08:24.256Z,27.90
2018-06-27T13:10:53.316Z,29.30
2018-06-27T13:13:22.384Z,30.80
2018-06-27T13:15:51.458Z,32.40
2018-06-27T13:18:20.524Z,31.90
2018-06-27T13:20:49.592Z,31.00
2018-06-27T13:23:18.648Z,30.30
2018-06-27T13:25:47.732Z,30.10
2018-06-27T13:28:16.785Z,30.40
2018-06-27T13:30:45.836Z,30.40
2018-06-27T13:33:14.920Z,30.30
2018-06-27T13:35:43.971Z,30.80
2018-06-27T13:38:13.035Z,32.50
2018-06-27T13:40:42.084Z,33.80
2018-06-27T13:45:40.108Z,34.40
2018-06-27T13:48:09.184Z,33.40
2018-06-27T13:50:38.240Z,32.90
2018-06-27T13:53:07.301Z,32.30
2018-06-27T13:55:36.352Z,32.40
2018-06-27T14:05:31.880Z,29.40
2018-06-27T14:08:00.939Z,28.70
2018-06-27T14:10:29.979Z,28.30
2018-06-27T14:12:59.064Z,29.20
2018-06-27T14:15:29.045Z,31.80
2018-06-27T14:17:58.108Z,32.80
2018-06-27T14:20:27.153Z,33.20
2018-06-27T14:22:56.363Z,33.50
2018-06-27T14:25:25.436Z,35.00
2018-06-27T14:27:54.500Z,35.80
2018-06-27T14:32:52.310Z,33.40
2018-06-27T14:35:21.356Z,32.00
2018-06-27T14:37:50.465Z,30.90
2018-06-27T14:40:19.500Z,30.30
2018-06-27T14:42:48.580Z,29.70
2018-06-27T14:47:46.352Z,28.80
2018-06-27T14:52:44.092Z,30.40
2018-06-27T14:55:13.329Z,30.90
2018-06-27T14:57:42.289Z,30.80
2018-06-27T15:00:11.332Z,31.80
2018-06-27T15:02:40.420Z,32.50
2018-06-27T15:05:09.546Z,34.40
2018-06-27T15:07:38.603Z,36.20
2018-06-27T15:10:07.658Z,37.40
2018-06-27T15:12:36.744Z,37.10
2018-06-27T15:15:06.439Z,36.10
2018-06-27T15:17:35.504Z,35.60
2018-06-27T15:20:04.729Z,35.70
2018-06-27T15:22:33.801Z,35.70
2018-06-27T15:25:02.843Z,35.90
2018-06-27T15:27:31.913Z,37.10
2018-06-27T15:30:00.964Z,37.40
2018-06-27T15:32:30.073Z,38.30
2018-06-27T15:34:59.196Z,39.00
2018-06-27T15:37:28.271Z,38.80
2018-06-27T15:39:57.338Z,39.30
2018-06-27T15:42:26.409Z,40.20
2018-06-27T15:44:55.452Z,41.10
2018-06-27T15:47:24.728Z,41.60
2018-06-27T15:49:53.776Z,42.00
2018-06-27T15:54:51.516Z,41.10
2018-06-27T15:57:21.112Z,42.10
2018-06-27T15:59:53.808Z,41.50
2018-06-27T16:02:23.300Z,40.80
2018-06-27T16:04:52.348Z,39.20
2018-06-27T16:09:51.076Z,36.10
2018-06-27T16:12:20.160Z,37.30
2018-06-27T16:14:49.205Z,38.80
2018-06-27T16:17:18.533Z,39.00
2018-06-27T16:19:47.336Z,38.30
2018-06-27T16:24:45.353Z,39.10
2018-06-27T16:27:14.415Z,39.10
2018-06-27T16:32:12.146Z,38.70
2018-06-27T16:34:41.212Z,38.10
2018-06-27T16:37:10.265Z,38.20
2018-06-27T16:39:39.336Z,37.80
2018-06-27T16:42:08.384Z,36.30
2018-06-27T16:49:34.798Z,32.30
2018-06-27T16:52:03.846Z,31.20
2018-06-27T16:54:32.939Z,30.60
2018-06-27T16:59:30.722Z,29.10
2018-06-27T17:04:28.460Z,28.00
2018-06-27T17:06:57.543Z,27.90
2018-06-27T17:09:27.006Z,27.80
2018-06-27T17:16:53.456Z,31.00
2018-06-27T17:19:22.525Z,33.40
2018-06-27T17:21:51.569Z,33.80
2018-06-27T17:26:49.288Z,36.10
2018-06-27T17:29:18.353Z,36.70
2018-06-27T17:34:16.120Z,34.50
2018-06-27T17:36:45.164Z,35.20
2018-06-27T17:39:14.224Z,36.20
2018-06-27T17:44:11.952Z,36.90
2018-06-27T17:46:41.009Z,37.70
2018-06-27T17:49:10.073Z,38.00
2018-06-27T17:51:39.115Z,38.20
2018-06-27T17:54:08.272Z,38.50
2018-06-27T17:56:37.325Z,38.90
2018-06-27T17:59:06.735Z,38.70
2018-06-27T18:01:35.791Z,38.80
2018-06-27T18:06:33.545Z,36.00
2018-06-27T18:09:02.620Z,34.60
2018-06-27T18:11:31.667Z,33.40
2018-06-27T18:16:29.428Z,31.40
2018-06-27T18:18:58.491Z,31.40
2018-06-27T18:21:27.548Z,31.70
2018-06-27T18:23:56.624Z,32.00
2018-06-27T18:26:25.665Z,32.30
2018-06-27T18:28:54.724Z,32.50
2018-06-27T18:33:52.469Z,33.20
2018-06-27T18:36:21.513Z,33.20
2018-06-27T18:38:50.576Z,33.50
2018-06-27T18:41:19.619Z,33.30
2018-06-27T18:43:48.680Z,33.20
2018-06-27T18:48:46.427Z,32.20
2018-06-27T18:51:15.482Z,30.60
2018-06-27T18:53:44.552Z,29.60
2018-06-27T18:56:13.592Z,28.70
2018-06-27T18:58:42.694Z,27.90
2018-06-27T19:01:11.748Z,27.40
2018-06-27T19:08:38.256Z,26.10
2018-06-27T19:11:07.298Z,25.80
2018-06-27T19:13:36.384Z,25.50
2018-06-27T19:16:05.452Z,25.10
2018-06-27T19:18:34.597Z,24.70
2018-06-27T19:21:03.640Z,24.40
2018-06-27T19:23:32.684Z,24.10
2018-06-27T19:26:01.752Z,23.70
2018-06-27T19:28:30.805Z,23.30
2018-06-27T19:30:59.864Z,22.90
2018-06-27T19:33:28.928Z,22.60
2018-06-27T19:35:57.988Z,22.30
2018-06-27T19:38:27.311Z,22.10
2018-06-27T19:40:56.162Z,21.90
2018-06-27T19:45:53.944Z,21.50
2018-06-27T19:48:22.985Z,21.30
2018-06-27T19:50:52.100Z,21.10
2018-06-27T19:53:21.148Z,20.80
2018-06-27T19:55:50.208Z,20.60
2018-06-27T19:58:19.314Z,20.50
2018-06-27T20:00:49.168Z,20.40
2018-06-27T20:03:18.215Z,20.20
2018-06-27T20:05:47.286Z,20.00
2018-06-27T20:08:16.333Z,19.90
2018-06-27T20:13:14.092Z,19.70
2018-06-27T20:15:43.153Z,19.60
2018-06-27T20:18:12.201Z,19.40
2018-06-27T20:20:41.321Z,19.40
2018-06-27T20:23:10.369Z,19.30
2018-06-27T20:25:39.436Z,19.20
2018-06-27T20:28:08.579Z,19.10
2018-06-27T20:30:37.645Z,19.10
2018-06-27T20:33:06.695Z,19.00
2018-06-27T20:35:35.762Z,18.90
2018-06-27T20:38:04.812Z,18.90
2018-06-27T20:40:33.876Z,18.80
2018-06-27T20:43:02.922Z,18.70
2018-06-27T20:45:31.984Z,18.60
2018-06-27T20:48:01.040Z,18.40
2018-06-27T20:50:30.104Z,18.30
2018-06-27T20:52:59.147Z,18.30
2018-06-27T20:55:28.358Z,18.20
2018-06-27T21:00:27.110Z,18.00
2018-06-27T21:02:56.176Z,18.00
2018-06-27T21:05:25.244Z,17.90
2018-06-27T21:10:23.042Z,17.90
2018-06-27T21:12:52.161Z,17.70
2018-06-27T21:15:21.224Z,17.70
2018-06-27T21:20:19.414Z,17.60
2018-06-27T21:25:17.373Z,17.60
2018-06-27T21:27:46.461Z,17.70
2018-06-27T21:30:15.528Z,17.60
2018-06-27T21:32:44.579Z,17.60
2018-06-27T21:40:11.336Z,17.50
2018-06-27T21:42:40.408Z,17.40
2018-06-27T21:45:09.476Z,17.30
2018-06-27T21:47:38.540Z,17.40
2018-06-27T21:50:07.635Z,17.40
2018-06-27T21:52:36.679Z,17.40
2018-06-27T21:55:06.293Z,17.40
2018-06-27T21:57:35.492Z,17.40
2018-06-27T22:00:05.917Z,17.40
2018-06-27T22:02:34.960Z,17.50
2018-06-27T22:05:04.040Z,17.40
2018-06-27T22:07:33.096Z,17.40
2018-06-27T22:10:02.161Z,17.30
2018-06-27T22:12:31.211Z,17.20
2018-06-27T22:15:00.276Z,17.30
2018-06-27T22:17:29.320Z,17.20
2018-06-27T22:19:58.400Z,17.30
2018-06-27T22:22:27.455Z,17.30
2018-06-27T22:24:56.541Z,17.30
2018-06-27T22:29:54.275Z,17.30
2018-06-27T22:32:23.344Z,17.20
2018-06-27T22:34:52.376Z,17.10
2018-06-27T22:37:21.440Z,17.00
2018-06-27T22:39:50.476Z,16.80
2018-06-27T22:42:19.552Z,16.70
2018-06-27T22:44:48.608Z,16.50
2018-06-27T22:47:17.678Z,16.40
2018-06-27T22:49:46.715Z,16.20
2018-06-27T22:52:15.780Z,16.20
2018-06-27T22:57:13.548Z,16.10
2018-06-27T22:59:42.591Z,16.00
2018-06-27T23:02:11.658Z,16.00
2018-06-27T23:07:09.428Z,15.80
2018-06-27T23:09:38.471Z,15.70
2018-06-27T23:12:07.572Z,15.70
2018-06-27T23:14:36.620Z,15.60
2018-06-27T23:17:05.695Z,15.50
2018-06-27T23:19:34.745Z,15.50
2018-06-27T23:22:03.833Z,15.40
2018-06-27T23:24:32.932Z,15.40
2018-06-27T23:27:02.270Z,15.20
2018-06-27T23:29:38.135Z,15.20
2018-06-27T23:32:07.204Z,15.20
2018-06-27T23:34:36.253Z,15.20
2018-06-27T23:37:05.312Z,15.10
2018-06-27T23:39:34.356Z,15.00
2018-06-27T23:44:32.140Z,15.00
2018-06-27T23:49:30.290Z,14.90
2018-06-27T23:51:59.483Z,14.90
2018-06-27T23:54:28.528Z,14.80
2018-06-27T23:59:26.776Z,14.70
